投稿到民航资源网

外航一周空中运行事件综述(11.9-11.15)

 2015-11-16 来源:民航资源网 作者:罗石  [投稿排行榜]
2015-11-16 17:45:04

我来说两句(0) 分享

      本综述尽可能收集国外航空公司一周空中运行事件,并根据已有信息对事件综述,供各位民航工作者参考借鉴。

      11月9日

      美国航空公司注册号N957AN的波音737-800飞机(机龄14.7年),执行从拉斯维加斯到芝加哥奥黑尔的AA-334航班。飞机从拉斯维加斯25左跑道离场爬升时,机组报告遭遇鸟击,需要返航拉斯维加斯并超重着陆,随后宣布紧急状态。离场约10分钟后飞机在25左跑道安全着陆。

      后续航班被取消。

      标签:飞机鸟击

      英国航空公司注册号G-BZHA的波音767-300飞机(机龄17.5年),执行从伦敦希思罗机场到雅典(希腊)的BA-632航班。飞机离场爬升时,机组在20000英尺高度停止爬升,并报告疑似燃油泄漏迫使其关闭一台发动机。随后飞机返航希思罗机场,离场约55分钟后飞机在27左跑道安全着陆。

      航班换飞机执行,延误5小时后到达雅典。

      标签:机械故障

      葡萄牙航空公司注册号CS-TOL的空客A330-200飞机(机龄8.1年),执行从马普托(莫桑比克)到里斯本(葡萄牙)的TP-282航班。飞机离场爬升时机组收到舱门开启指示,立即在10000英尺高度停止爬升并返航马普托,离场约20分钟后飞机安全着陆。

      标签:舱门异常

      美国联合航空公司注册号N17245的波音737-800飞机(机龄16.1年),执行从拉斯维加斯到旧金山的UA-1905航班。飞机在旧金山28右跑道最后进近下降通过50英尺高度时,发动机遭受鸟击。机组继续进近并安全着陆,脱离跑道时向塔台报告遭遇鸟击。

      标签:飞机鸟击

      11月10日

      美国航空公司注册号N9401W的MD-83飞机(机龄23.4年),执行从罗利达勒姆机场到达拉斯沃斯堡的AA-2428航班。飞机在罗利达勒姆机场西部约90海里,高度31000英尺时,机组报告一台发动机疑似出现故障并备降夏洛特(美国),大约25分钟后飞机安全着陆。后续航班被取消,乘客被安排至其他航班。

      标签:机械故障

      美国航空公司注册号N795AN的波音777-200飞机(机龄14.9年),执行从纽约肯尼迪机场到布宜诺斯艾利斯埃塞萨机场(阿根廷)的AA-953航班。飞机从04左跑道离场爬升时,机组请求在12000英尺高度改平,随后开始返航肯尼迪机场,并请求在04左跑道超重着陆。飞机进近时机组宣布“Mayday”,并称雷达罩出现故障,飞机即将超重着陆时机组请求应急服务部门待命,并解释称其认为雷达罩密封圈松动撞击风挡。离场约35分钟后飞机在肯尼迪机场04左跑道安全着陆。

      航班换飞机执行,延误15.5小时后等待布宜诺斯艾利斯。

      标签:机械故障

      易捷航空公司注册号G-EZTL的空客A320-200飞机(机龄6.3年),执行从伦敦盖特威克机场到安塔利亚(土耳其)的U2-8835航班。飞机在索菲亚(保加利亚)西北偏北约155海里,高度39000英尺时,机组报告驾驶舱和客舱前段出现强烈的焦味,并决定备降索菲亚。离开39000英尺高度约30分钟后,飞机在索菲亚27号爬升安全着陆。

      航班换飞机执行,延误4.5小时后到达安塔利亚。

      标签:机舱异味

      11月11日

      俄罗斯联合远东航空公司(Aurora)注册号VP-BWL的空客A319-100飞机(机龄11.5年),执行从哈巴罗夫斯克到彼得罗巴甫洛夫斯克(俄罗斯)的SU-5684航班。飞机离场爬升通过36000英尺高度时,机长后侧固定窗爆裂,迫使机组返航哈巴罗夫斯克机场,离场约80分钟后飞机安全着陆。

      标签:机械故障

      英国洛根航空公司(Loganair)注册号G-LGNI的萨博340飞机执行从格拉斯哥到设得兰群岛萨姆堡机场(英国)的BE-6919航班。飞机在阿伯丁(英国)北部约70海里,高度19000英尺时,机组关闭右发动机并决定备降阿伯丁,大约40分钟后飞机安全着陆。后续航班被取消,乘客被安排至其他航班。

      标签:机械故障

      美国快捷航空公司注册号N903EV的CRJ-200飞机,执行从查特怒加到达拉斯沃斯堡机场(美国)的AA-2762航班。飞机离场爬升时,乘客注意到左机翼有燃油泄漏,机组在24000英尺高度停止爬升,并决定备降亨茨维尔(美国),大约15分钟后飞机安全着陆。航班换飞机执行,延误8小时后到达达拉斯。

      标签:燃油泄漏

      11月13日

      老挝Skyway航空公司注册号RDPL-34226的新舟60飞机,执行从琅勃拉邦到万象(老挝)的LLL-265航班。当地时间14:00(世界协调时07:00)飞机在万象机场13号跑道着陆时冲出跑道。无人受伤。

      标签:冲出跑道

      英国Flybe航空公司注册号G-JECE的DHC-8-400飞机(机龄11.8年),执行从东米德兰兹到爱丁堡(英国)的BE-262航班。飞机从东米德兰兹离场爬升时,由于货舱舱门开启指示,机组在8000英尺高度停止爬升,并决定备降曼彻斯特,离场约35分钟后飞机安全着陆。

      飞机在地面停留后再次起飞,延误3.5小时后到达爱丁堡。

      标签:飞机故障

      荷兰皇家城市短途航空公司(KLM Cityhopper)注册号PH-KZR的福克F70飞机(机龄20.2年),执行从阿姆斯特丹到斯塔万格(挪威)的KL-1201航班。飞机在斯塔万格进近时遭受雷击,机组继续进近,随后在斯塔万格18号跑道安全着陆。后续航班被取消,乘客被安排至其他航班。气象报文显示事发时,机场附近有少量雷暴云。

      ENZV 131250Z 23010KT 9000 VCSH FEW030CB SCT031 BKN057 10/04 Q1000 TEMPO SHRA

      ENZV 131220Z 23008KT 9999 VCSH SCT031CB BKN062 10/04 Q1000 TEMPO SHRA

      标签:飞机雷击

      英国航空公司注册号G-EUPZ的空客A319-100飞机(机龄14.5年),执行从伦敦希思罗机场到卑尔根(挪威)的BA-76航班。飞机在卑尔根下降时遭遇雷击,随后在卑尔根17号跑道安全着陆。气象报文显示事发时近场附近有弱雷雨,风速也较大。

      ENBR 131820Z 15014KT 7000 SHRAGS FEW014CB BKN018 04/02 Q0997 TEMPO 4000 TSRAGS BKN014CB RMK WIND 1200FT 16019KT

      ENBR 131750Z 15017KT 9999 -TSRA FEW015CB SCT020 BKN030 04/02 Q0996 RESHRAGS TEMPO TSRA BKN014CB RMK WIND 1200FT 15022KT

      标签:飞机雷击

      巴西天马航空公司注册号PR-MAR的空客A320-200飞机(机龄13.1年),执行从隆德里纳到圣保罗瓜鲁柳斯机场(巴西)的JJ-3491航班。当地时间11:29(世界协调时13:29)飞机在隆德里纳13号跑道加速起飞时,机组遇到航向控制故障,并请求使用跑道全长中断起飞。飞机安全减速后停在跑道上,最终被拖至停机坪。

      机场关闭了约30分钟直到飞机被拖离跑道。

      标签:机械故障

      11月14日

      美国航空公司注册号N969NN的波音737-800飞机(机龄0.6年),执行从芝加哥奥黑尔机场到奥兰多的AA-1027航班。飞机在奥兰多36左跑道最后进近阶段距接地地带约5海里时,左发动机遭遇鸟击,发动机参数均显示正常。机组继续进近,大约2分钟后飞机在36左跑道安全着陆。

      标签:飞机鸟击

      11月15日

      新西兰纳尔逊航空公司注册号ZK-NEM的DHC-8-300飞机(机龄9.3年),执行从布伦海姆到奥克兰(新西兰)的NZ-8018航班。飞机加速起飞时遭受鸟击,机组中断起飞,安全减速后返航停机坪。

      经过检查后飞机再次起飞,延误40分钟后到达奥克兰。

      标签:飞机鸟击

      以色列航空公司注册号4X-ECA的波音777-200飞机(机龄14.9年),执行从特拉维夫(以色列)到洛杉矶的LY-5航班。飞机在比林斯(美国)东部约200海里,高度36000英尺时,机组收到右发动机火警指示,执行检查单后关闭发动机并释放灭火剂,随后决定备降比林斯。离开36000英尺高度约38分钟后飞机在28右跑道安全着陆。机组请求应急服务部门检查右发动机,应急服务部门未发现任何火情、烟雾或高温的迹象。机组随后决定将飞机滑行至停机坪,乘客正常下机。

      标签:发动机起火

    1荐闻榜

    更多文章和观点请访问罗石专题

    发表评论
    发表请先 登陆/注册

    严禁发布攻击他人、言语粗俗、涉及政治等违反规定的言论,违者法办!